Flight Track Log - Related Links

Times and Time Zones

All times are in EDT time to prevent confusion due to time zone crossing. See the AWI3551 flight status page for this flight to view local times or setup timezone preferences in your user account.

Time Position Orientation Groundspeed Altitude Reporting Facility
EDT Latitude Longitude Course Direction KTS MPH feet Rate Location/Type
Thu 05:38:41 AM 42.9333 -78.7500 173° South 158 182 1,400  Level Buffalo TRACON
Thu 05:40:19 AM 42.8506 -78.7850 197° South 216 249 4,400 1,823 Climbing Cleveland Center
Thu 05:41:00 AM 42.6411 -78.6882 172° South  Level FlightAware Approximate
Thu 05:41:19 AM 42.7817 -78.7700 171° South 227 261 6,200  Level Cleveland Center
Thu 05:42:00 AM 42.5442 -78.6688 172° South  Level FlightAware Approximate
Thu 05:42:19 AM 42.7147 -78.7550 171° South 262 302 8,400  Level Cleveland Center
Thu 05:43:00 AM 42.4469 -78.6523 173° South  Level FlightAware Approximate
Thu 05:43:19 AM 42.6433 -78.7344 168° South 266 306 10,600  Level Cleveland Center
Thu 05:44:19 AM 42.5578 -78.7172 172° South 288 331 11,800 1,450 Climbing Cleveland Center
Thu 05:45:19 AM 42.4678 -78.6972 171° South 309 356 13,500 1,600 Climbing Cleveland Center
Thu 05:46:19 AM 42.3778 -78.6803 172° South 324 373 15,000 1,350 Climbing Cleveland Center
Thu 05:47:19 AM 42.2858 -78.6578 170° South 335 386 16,200 1,200 Climbing Cleveland Center
Thu 05:48:19 AM 42.1894 -78.6383 171° South 341 392 17,400 1,050 Climbing Cleveland Center
Thu 05:49:19 AM 42.0808 -78.6247 175° South 347 399 18,300 850 Climbing Cleveland Center
Thu 05:50:19 AM 41.9850 -78.6250 180° South 352 405 19,100 900 Climbing Cleveland Center
Thu 05:51:19 AM 41.8850 -78.6225 179° South 352 405 20,100 850 Climbing Cleveland Center
Thu 05:52:19 AM 41.7867 -78.6142 176° South 352 405 20,800 700 Climbing Cleveland Center
Thu 05:53:19 AM 41.6919 -78.5533 154° Southeast 352 405 21,500 650 Climbing Cleveland Center
Thu 05:54:19 AM 41.6011 -78.4839 150° Southeast 368 423 22,100 550 Climbing Cleveland Center
Thu 05:55:19 AM 41.5058 -78.4147 151° Southeast 379 436 22,600 450 Climbing Cleveland Center
Thu 05:56:19 AM 41.4086 -78.3461 152° Southeast 396 456 23,000 186 Climbing Cleveland Center
Thu 05:57:28 AM 41.3075 -78.2703 151° Southeast 402 463 23,000  Level New York Center
Thu 05:58:27 AM 41.2036 -78.1981 152° Southeast 408 470 23,000  Level New York Center
Thu 05:59:27 AM 41.1000 -78.1233 151° Southeast 419 482 23,000  Level New York Center
Thu 06:00:28 AM 40.9958 -78.0514 152° Southeast 419 482 23,000  Level New York Center
Thu 06:01:28 AM 40.8969 -77.9667 147° Southeast 419 482 23,000 -403 Level New York Center
Thu 06:02:27 AM 40.8186 -77.8461 131° Southeast 419 482 22,200 -1,008 Descending New York Center
Thu 06:03:27 AM 40.7403 -77.7256 131° Southeast 429 494 21,000 -1,200 Descending New York Center
Thu 06:04:27 AM 40.6617 -77.6083 131° Southeast 429 494 19,800 -1,300 Descending New York Center
Thu 06:05:27 AM 40.5811 -77.4881 131° Southeast 412 474 18,400 -893 Descending New York Center
Thu 06:06:28 AM 40.5147 -77.3725 127° Southeast 396 456 18,000 -200 Descending New York Center
Thu 06:07:27 AM 40.4678 -77.2397 115° Southeast 396 456 18,000  Level New York Center
Thu 06:08:27 AM 40.4208 -77.1069 115° Southeast 402 463 18,000  Level New York Center
Thu 06:09:28 AM 40.3714 -76.9744 116° Southeast 402 463 18,000  Level New York Center
Thu 06:10:27 AM 40.3242 -76.8394 115° Southeast 402 463 18,000  Level New York Center
Thu 06:11:29 AM 40.2917 -76.7006 107° East 397 457 18,000 -450 Level New York Center
Thu 06:12:27 AM 40.2611 -76.5592 106° East 403 464 17,100 -1,311 Descending New York Center
Thu 06:13:28 AM 40.2336 -76.4400 107° East 388 447 15,400 -1,800 Descending New York Center
Thu 06:14:27 AM 40.2033 -76.2881 105° East 388 447 13,500 -1,765 Descending New York Center
Thu 06:15:27 AM 40.1739 -76.1581 106° East 388 447 11,900 -1,500 Descending New York Center
Thu 06:16:27 AM 40.1458 -76.0389 107° East 370 426 10,500 -1,240 Descending New York Center
Thu 06:17:28 AM 40.1269 -75.9481 105° East 313 360 9,400 -1,091 Descending New York Center
Thu 06:18:28 AM 40.1022 -75.8456 107° East 297 342 8,300 -706 Descending New York Center
Thu 06:19:27 AM 40.0989 -75.7286 92° East 284 327 8,000 -151 Descending New York Center
Thu 06:20:27 AM 40.1133 -75.6347 79° East 284 327 8,000 -149 Level New York Center
Thu 06:21:28 AM 40.1328 -75.5167 78° East 295 339 7,700 -793 Descending New York Center
Thu 06:22:28 AM 40.1469 -75.4225 79° East 295 339 6,400 -857 Descending New York Center
Thu 06:23:27 AM 40.1319 -75.3211 101° East 273 314 6,000 -202 Descending New York Center
Thu 06:24:27 AM 40.0925 -75.2642 132° Southeast 223 257 6,000  Level New York Center
Thu 06:25:28 AM 40.0367 -75.2550 173° South 201 231 6,000  Level New York Center
Thu 06:26:29 AM 39.9683 -75.2400 170° South 220 253 6,000 -151 Level New York Center
Thu 06:27:27 AM 39.9628 -75.1664 96° East 176 203 5,700 -508 Descending New York Center
Thu 06:28:27 AM 39.9825 -75.0836 73° East 208 239 5,000 -446 Descending New York Center
Thu 06:29:28 AM 40.0022 -75.0036 72° East 226 260 4,800 -496 Descending New York Center
Thu 06:30:28 AM 40.0092 -74.9256 83° East 226 260 4,000 -366 Descending New York Center
Thu 06:31:39 AM 39.9500 -74.9167 173° South 190 219 4,000 -46 Level Philadelphia TRACON
Thu 06:32:39 AM 39.9333 -74.9667 247° West 171 197 3,900 -474 Descending Philadelphia TRACON
Thu 06:33:33 AM 39.9167 -75.0167 247° West 157 181 3,100 -889 Descending Philadelphia TRACON

Login

Don't have an account? Register now (free) for customized features, flight alerts, and more!